Time;durP1;ratioP1;P1;durP2;ratioP2;P2;SDS_P1;SDS_P2;PMS_P1;PMS_P2;Temp;Humidity;BMP_temperature;BMP_pressure;BME280_temperature;BME280_humidity;BME280_pressure;Samples;Min_cycle;Max_cycle;Signal;HPM_P1;HPM_P2
2024/04/13 00:02:10;;;;;;;;;8.33;7.33;;;;;;;;5505097;25;44266;-78
2024/04/13 00:04:35;;;;;;;;;9.67;9.67;;;;;;;;5510814;25;44456;-78
2024/04/13 00:07:00;;;;;;;;;8.33;6.00;;;;;;;;5510953;25;44876;-77
2024/04/13 00:09:26;;;;;;;;;11.33;10.00;;;;;;;;5513031;25;43987;-78
2024/04/13 00:11:51;;;;;;;;;12.33;10.33;;;;;;;;5507005;25;43855;-78
2024/04/13 00:14:16;;;;;;;;;10.33;10.00;;;;;;;;5511952;25;44021;-78
2024/04/13 00:16:41;;;;;;;;;10.67;8.67;;;;;;;;5507124;25;44608;-76
2024/04/13 00:19:07;;;;;;;;;11.33;10.67;;;;;;;;5510127;25;44128;-78
2024/04/13 00:21:32;;;;;;;;;10.67;10.67;;;;;;;;5512764;25;44047;-78
2024/04/13 00:23:58;;;;;;;;;11.00;9.00;;;;;;;;5511465;25;44674;-77
2024/04/13 00:26:27;;;;;;;;;11.33;10.00;;;;;;;;5511110;25;45830;-77
2024/04/13 00:28:54;;;;;;;;;9.33;9.33;;;;;;;;5509628;25;43903;-77
2024/04/13 00:31:20;;;;;;;;;9.67;8.33;;;;;;;;5505803;25;44088;-77
2024/04/13 00:33:47;;;;;;;;;11.33;8.67;;;;;;;;5507547;25;44041;-78
2024/04/13 00:36:12;;;;;;;;;10.33;9.00;;;;;;;;5511843;25;45650;-76
2024/04/13 00:38:37;;;;;;;;;9.33;8.00;;;;;;;;5506531;25;44110;-77
2024/04/13 00:41:02;;;;;;;;;7.33;7.33;;;;;;;;5494599;25;43911;-80
2024/04/13 00:43:28;;;;;;;;;11.33;7.33;;;;;;;;5492236;25;43827;-77
2024/04/13 00:45:55;;;;;;;;;8.00;6.33;;;;;;;;5516494;25;45097;-76
2024/04/13 00:48:24;;;;;;;;;8.00;7.00;;;;;;;;5525742;25;44463;-77
2024/04/13 00:50:58;;;;;;;;;8.00;7.00;;;;;;;;5528173;25;43836;-77
2024/04/13 00:53:24;;;;;;;;;5.67;5.67;;;;;;;;5492640;25;44277;-76
2024/04/13 00:55:50;;;;;;;;;7.00;5.33;;;;;;;;5506256;25;45040;-77
2024/04/13 00:58:15;;;;;;;;;5.00;5.00;;;;;;;;5509006;25;44450;-76
2024/04/13 01:00:44;;;;;;;;;5.67;5.67;;;;;;;;5517815;25;43936;-77
2024/04/13 01:03:09;;;;;;;;;5.33;4.67;;;;;;;;5512196;25;44466;-77
2024/04/13 01:05:38;;;;;;;;;10.00;6.33;;;;;;;;5525696;25;45136;-77
2024/04/13 01:08:04;;;;;;;;;3.67;3.67;;;;;;;;5491095;25;43820;-81
2024/04/13 01:10:29;;;;;;;;;5.00;3.33;;;;;;;;5485396;25;43916;-76
2024/04/13 01:12:55;;;;;;;;;6.00;2.33;;;;;;;;5513676;25;44329;-77
2024/04/13 01:15:20;;;;;;;;;4.00;4.00;;;;;;;;5514594;25;44385;-75
2024/04/13 01:17:47;;;;;;;;;4.33;4.33;;;;;;;;5490382;25;43986;-78
2024/04/13 01:20:12;;;;;;;;;6.33;4.00;;;;;;;;5516146;25;44252;-76
2024/04/13 01:22:42;;;;;;;;;4.00;4.00;;;;;;;;5524773;25;44783;-76
2024/04/13 01:25:09;;;;;;;;;4.67;4.67;;;;;;;;5488812;25;44460;-77
2024/04/13 01:27:34;;;;;;;;;6.67;3.67;;;;;;;;5504735;25;44387;-76
2024/04/13 01:30:00;;;;;;;;;4.00;3.00;;;;;;;;5498231;25;44642;-76
2024/04/13 01:32:25;;;;;;;;;4.00;4.00;;;;;;;;5491276;25;44500;-76
2024/04/13 01:34:50;;;;;;;;;3.33;2.33;;;;;;;;5488646;25;45044;-76
2024/04/13 01:37:15;;;;;;;;;4.00;4.00;;;;;;;;5515560;25;44349;-77
2024/04/13 01:39:44;;;;;;;;;4.67;4.00;;;;;;;;5502173;25;43879;-77
2024/04/13 01:42:09;;;;;;;;;3.00;3.00;;;;;;;;5467776;25;45497;-75
2024/04/13 01:44:35;;;;;;;;;4.67;3.00;;;;;;;;5488898;25;45828;-77
2024/04/13 01:47:01;;;;;;;;;6.00;5.00;;;;;;;;5491917;25;44119;-77
2024/04/13 01:49:26;;;;;;;;;7.67;4.67;;;;;;;;5474437;25;44504;-72
2024/04/13 01:51:51;;;;;;;;;4.67;3.00;;;;;;;;5509789;25;44594;-72
2024/04/13 01:54:17;;;;;;;;;6.00;4.00;;;;;;;;5491557;25;44287;-72
2024/04/13 01:56:42;;;;;;;;;8.33;7.33;;;;;;;;5489713;25;44006;-72
2024/04/13 01:59:08;;;;;;;;;4.33;3.00;;;;;;;;5486839;25;44411;-74
2024/04/13 02:01:49;;;;;;;;;4.00;4.00;;;;;;;;5523997;25;44277;-73
2024/04/13 02:04:14;;;;;;;;;8.33;5.00;;;;;;;;5514449;25;44389;-74
2024/04/13 02:06:39;;;;;;;;;5.33;5.33;;;;;;;;5489555;25;44483;-72
2024/04/13 02:09:05;;;;;;;;;6.00;5.00;;;;;;;;5466291;25;45146;-71
2024/04/13 02:11:30;;;;;;;;;4.00;4.00;;;;;;;;5485179;25;43932;-72
2024/04/13 02:13:55;;;;;;;;;3.00;3.00;;;;;;;;5476468;25;45017;-73
2024/04/13 02:16:20;;;;;;;;;5.67;5.67;;;;;;;;5479281;25;44286;-73
2024/04/13 02:18:46;;;;;;;;;5.00;4.00;;;;;;;;5505042;25;43966;-71
2024/04/13 02:21:11;;;;;;;;;7.00;4.67;;;;;;;;5525514;25;44559;-73
2024/04/13 02:23:36;;;;;;;;;7.67;7.00;;;;;;;;5508180;25;44225;-72
2024/04/13 02:26:02;;;;;;;;;9.00;8.00;;;;;;;;5503000;25;44502;-72
2024/04/13 02:28:27;;;;;;;;;6.67;6.67;;;;;;;;5505809;25;44104;-73
2024/04/13 02:30:53;;;;;;;;;9.00;9.00;;;;;;;;5494438;25;44944;-72
2024/04/13 02:33:19;;;;;;;;;14.00;10.33;;;;;;;;5481735;25;45248;-72
2024/04/13 02:35:45;;;;;;;;;8.67;8.67;;;;;;;;5481987;25;44490;-73
2024/04/13 02:38:10;;;;;;;;;12.00;10.67;;;;;;;;5521113;25;44319;-72
2024/04/13 02:40:35;;;;;;;;;11.67;8.00;;;;;;;;5483109;25;44476;-74
2024/04/13 02:43:01;;;;;;;;;8.00;8.00;;;;;;;;5498101;25;43911;-73
2024/04/13 02:45:26;;;;;;;;;10.67;7.67;;;;;;;;5495887;25;44203;-73
2024/04/13 02:47:52;;;;;;;;;6.67;6.67;;;;;;;;5497363;25;44429;-73
2024/04/13 02:50:17;;;;;;;;;5.00;5.00;;;;;;;;5494019;25;44756;-72
2024/04/13 02:52:42;;;;;;;;;8.33;6.67;;;;;;;;5477774;25;44331;-74
2024/04/13 02:55:09;;;;;;;;;7.33;5.00;;;;;;;;5518061;25;43891;-73
2024/04/13 02:57:34;;;;;;;;;9.33;8.67;;;;;;;;5493343;25;44402;-72
2024/04/13 02:59:59;;;;;;;;;5.67;5.00;;;;;;;;5478299;25;44428;-72
2024/04/13 03:02:24;;;;;;;;;7.67;7.67;;;;;;;;5486242;25;44744;-72
2024/04/13 03:04:50;;;;;;;;;14.00;14.00;;;;;;;;5491345;25;43925;-72
2024/04/13 03:07:16;;;;;;;;;13.67;9.67;;;;;;;;5481904;25;44198;-73
2024/04/13 03:09:41;;;;;;;;;9.00;6.33;;;;;;;;5488561;25;44402;-72
2024/04/13 03:12:07;;;;;;;;;8.67;6.00;;;;;;;;5491073;25;43968;-74
2024/04/13 03:14:33;;;;;;;;;0.33;0.00;;;;;;;;5498927;25;44462;-73
2024/04/13 03:16:59;;;;;;;;;7.33;7.33;;;;;;;;5488086;25;44305;-72
2024/04/13 03:19:25;;;;;;;;;11.00;10.33;;;;;;;;5489144;25;44283;-73
2024/04/13 03:21:50;;;;;;;;;5.67;5.00;;;;;;;;5488100;25;44175;-73
2024/04/13 03:24:15;;;;;;;;;7.67;6.00;;;;;;;;5487539;25;43995;-73
2024/04/13 03:26:40;;;;;;;;;5.33;5.33;;;;;;;;5493682;25;44371;-73
2024/04/13 03:29:06;;;;;;;;;8.67;7.00;;;;;;;;5491866;25;44355;-72
2024/04/13 03:31:31;;;;;;;;;5.00;4.00;;;;;;;;5487387;25;46245;-73
2024/04/13 03:33:57;;;;;;;;;6.33;6.33;;;;;;;;5490405;25;43812;-74
2024/04/13 03:36:22;;;;;;;;;8.33;4.67;;;;;;;;5491439;25;43836;-73
2024/04/13 03:38:49;;;;;;;;;8.00;6.67;;;;;;;;5514092;25;45813;-73
2024/04/13 03:41:14;;;;;;;;;9.00;8.00;;;;;;;;5492061;25;46352;-73
2024/04/13 03:43:39;;;;;;;;;13.67;7.33;;;;;;;;5528039;25;43943;-72
2024/04/13 03:46:05;;;;;;;;;13.67;10.67;;;;;;;;5522451;25;44441;-73
2024/04/13 03:48:31;;;;;;;;;15.33;10.33;;;;;;;;5490896;25;43988;-72
2024/04/13 03:50:56;;;;;;;;;18.33;11.67;;;;;;;;5497986;25;44644;-72
2024/04/13 03:53:21;;;;;;;;;14.00;10.67;;;;;;;;5506691;25;44060;-71
2024/04/13 03:55:46;;;;;;;;;14.00;12.67;;;;;;;;5503268;25;44112;-72
2024/04/13 03:58:12;;;;;;;;;13.67;11.33;;;;;;;;5496464;25;44207;-72
2024/04/13 04:00:37;;;;;;;;;12.67;10.33;;;;;;;;5481182;25;45669;-74
2024/04/13 04:03:03;;;;;;;;;13.00;11.33;;;;;;;;5499479;25;44596;-72
2024/04/13 04:05:28;;;;;;;;;19.00;13.00;;;;;;;;5517136;25;44565;-73
2024/04/13 04:07:53;;;;;;;;;18.00;14.00;;;;;;;;5490720;25;44698;-73
2024/04/13 04:10:18;;;;;;;;;17.33;13.67;;;;;;;;5494636;25;45743;-73
2024/04/13 04:12:44;;;;;;;;;15.00;12.67;;;;;;;;5497760;25;43808;-73
2024/04/13 04:15:09;;;;;;;;;15.33;14.67;;;;;;;;5494954;25;44228;-74
2024/04/13 04:17:34;;;;;;;;;19.33;14.00;;;;;;;;5489910;25;44298;-75
2024/04/13 04:19:59;;;;;;;;;18.33;15.00;;;;;;;;5498381;25;44223;-73
2024/04/13 04:22:27;;;;;;;;;22.00;17.00;;;;;;;;5526720;25;44473;-72
2024/04/13 04:24:53;;;;;;;;;14.00;13.00;;;;;;;;5483693;25;44006;-74
2024/04/13 04:27:19;;;;;;;;;14.00;13.67;;;;;;;;5484520;25;44445;-74
2024/04/13 04:29:45;;;;;;;;;16.67;15.67;;;;;;;;5500756;25;44802;-72
2024/04/13 04:32:10;;;;;;;;;17.33;14.67;;;;;;;;5501200;25;44982;-75
2024/04/13 04:34:35;;;;;;;;;15.00;15.00;;;;;;;;5492759;25;44466;-72
2024/04/13 04:37:01;;;;;;;;;13.00;12.67;;;;;;;;5497927;25;44144;-74
2024/04/13 04:39:26;;;;;;;;;15.00;14.00;;;;;;;;5489981;25;44880;-74
2024/04/13 04:41:51;;;;;;;;;16.67;15.00;;;;;;;;5505270;25;43907;-75
2024/04/13 04:44:16;;;;;;;;;19.33;16.00;;;;;;;;5513437;25;44090;-73
2024/04/13 04:46:42;;;;;;;;;14.00;14.00;;;;;;;;5488912;25;44677;-73
2024/04/13 04:49:07;;;;;;;;;17.00;15.00;;;;;;;;5511543;25;46668;-74
2024/04/13 04:51:33;;;;;;;;;14.00;11.00;;;;;;;;5488833;25;44129;-73
2024/04/13 04:53:58;;;;;;;;;17.00;14.67;;;;;;;;5499614;25;44413;-77
2024/04/13 04:56:26;;;;;;;;;24.00;15.33;;;;;;;;5507408;25;44262;-77
2024/04/13 04:58:51;;;;;;;;;15.00;13.33;;;;;;;;5500344;25;45571;-79
2024/04/13 05:01:16;;;;;;;;;14.33;12.67;;;;;;;;5485978;25;44241;-78
2024/04/13 05:03:41;;;;;;;;;16.67;14.33;;;;;;;;5489823;25;44268;-78
2024/04/13 05:06:07;;;;;;;;;10.00;8.33;;;;;;;;5499603;25;44141;-78
2024/04/13 05:08:32;;;;;;;;;16.00;13.67;;;;;;;;5511566;25;46633;-78
2024/04/13 05:10:57;;;;;;;;;16.67;14.33;;;;;;;;5509524;25;44385;-78
2024/04/13 05:13:23;;;;;;;;;15.00;12.00;;;;;;;;5497568;25;44113;-77
2024/04/13 05:15:48;;;;;;;;;14.33;14.33;;;;;;;;5509595;25;43943;-77
2024/04/13 05:18:14;;;;;;;;;16.67;13.00;;;;;;;;5513680;25;44439;-77
2024/04/13 05:20:39;;;;;;;;;17.67;13.67;;;;;;;;5501641;25;43947;-78
2024/04/13 05:23:05;;;;;;;;;13.00;13.00;;;;;;;;5469909;25;44443;-78
2024/04/13 05:25:30;;;;;;;;;13.33;11.00;;;;;;;;5473385;25;44370;-78
2024/04/13 05:27:55;;;;;;;;;15.00;12.00;;;;;;;;5494536;25;46713;-77
2024/04/13 05:30:21;;;;;;;;;17.67;15.67;;;;;;;;5480428;25;45110;-77
2024/04/13 05:32:46;;;;;;;;;17.00;15.00;;;;;;;;5513492;25;44374;-78
2024/04/13 05:35:12;;;;;;;;;19.00;16.67;;;;;;;;5488855;25;44388;-78
2024/04/13 05:37:38;;;;;;;;;15.00;11.00;;;;;;;;5521331;25;45884;-77
2024/04/13 05:40:04;;;;;;;;;20.33;14.00;;;;;;;;5492336;25;44017;-79
2024/04/13 05:42:32;;;;;;;;;17.00;15.00;;;;;;;;5489434;25;44415;-77
2024/04/13 05:44:58;;;;;;;;;17.67;15.00;;;;;;;;5479551;25;44235;-78
2024/04/13 05:47:23;;;;;;;;;18.33;14.33;;;;;;;;5470801;25;44255;-78
2024/04/13 05:49:50;;;;;;;;;15.00;14.00;;;;;;;;5481464;25;44620;-77
2024/04/13 05:52:15;;;;;;;;;18.67;17.67;;;;;;;;5483689;25;44616;-79
2024/04/13 05:54:40;;;;;;;;;15.67;15.67;;;;;;;;5486262;25;44124;-77
2024/04/13 05:57:07;;;;;;;;;20.67;17.00;;;;;;;;5467899;25;45269;-78
2024/04/13 05:59:32;;;;;;;;;14.00;12.00;;;;;;;;5459931;25;44416;-76
2024/04/13 06:01:57;;;;;;;;;16.00;13.67;;;;;;;;5462731;25;44347;-79
2024/04/13 06:04:23;;;;;;;;;19.00;14.33;;;;;;;;5494401;25;45575;-78
2024/04/13 06:06:49;;;;;;;;;20.67;17.67;;;;;;;;5485199;25;45696;-77
2024/04/13 06:09:14;;;;;;;;;14.33;11.00;;;;;;;;5484785;25;43931;-77
2024/04/13 06:11:40;;;;;;;;;16.67;14.67;;;;;;;;5503445;25;44461;-76
2024/04/13 06:14:05;;;;;;;;;14.00;11.67;;;;;;;;5464133;25;44821;-76
2024/04/13 06:16:31;;;;;;;;;18.00;14.00;;;;;;;;5490359;25;43974;-77
2024/04/13 06:18:56;;;;;;;;;17.67;15.33;;;;;;;;5494873;25;44352;-77
2024/04/13 06:21:21;;;;;;;;;63.33;49.00;;;;;;;;5498977;25;43937;-76
2024/04/13 06:23:46;;;;;;;;;46.00;37.33;;;;;;;;5461497;25;44222;-76
2024/04/13 06:26:11;;;;;;;;;22.00;18.67;;;;;;;;5470543;25;45606;-76
2024/04/13 06:28:37;;;;;;;;;15.67;13.67;;;;;;;;5482475;25;44250;-78
2024/04/13 06:31:02;;;;;;;;;14.33;13.33;;;;;;;;5493330;25;44450;-76
2024/04/13 06:33:27;;;;;;;;;15.33;15.00;;;;;;;;5483062;25;44703;-77
2024/04/13 06:35:53;;;;;;;;;16.33;10.67;;;;;;;;5489081;25;44838;-79
2024/04/13 06:38:23;;;;;;;;;11.33;11.33;;;;;;;;5487808;25;43893;-79
2024/04/13 06:40:49;;;;;;;;;19.33;15.33;;;;;;;;5491271;25;44388;-79
2024/04/13 06:43:14;;;;;;;;;13.67;11.67;;;;;;;;5493404;25;44743;-78
2024/04/13 06:45:39;;;;;;;;;15.33;12.33;;;;;;;;5485338;25;44403;-79
2024/04/13 06:48:05;;;;;;;;;12.00;12.00;;;;;;;;5493990;25;45258;-76
2024/04/13 06:50:31;;;;;;;;;13.33;11.33;;;;;;;;5478378;25;44100;-77
2024/04/13 06:52:59;;;;;;;;;15.25;10.50;;;;;;;;5498485;25;44780;-78
2024/04/13 06:55:24;;;;;;;;;13.50;13.50;;;;;;;;5489502;25;44074;-77
2024/04/13 06:57:50;;;;;;;;;14.33;11.67;;;;;;;;5497949;25;44423;-79
2024/04/13 07:00:15;;;;;;;;;15.25;13.00;;;;;;;;5491111;25;44405;-76
2024/04/13 07:02:41;;;;;;;;;12.25;11.25;;;;;;;;5489802;25;44427;-77
2024/04/13 07:05:09;;;;;;;;;7.50;7.50;;;;;;;;5499363;25;44038;-76
2024/04/13 07:07:34;;;;;;;;;14.75;13.00;;;;;;;;5506906;25;43952;-77
2024/04/13 07:09:59;;;;;;;;;12.75;11.25;;;;;;;;5499297;25;44259;-77
2024/04/13 07:12:25;;;;;;;;;12.25;10.75;;;;;;;;5498329;25;44317;-76
2024/04/13 07:14:50;;;;;;;;;10.00;10.00;;;;;;;;5500401;25;44042;-77
2024/04/13 07:17:16;;;;;;;;;7.25;5.00;;;;;;;;5504638;25;44408;-79
2024/04/13 07:19:41;;;;;;;;;6.50;6.00;;;;;;;;5489069;25;44266;-76
2024/04/13 07:22:06;;;;;;;;;6.25;5.00;;;;;;;;5481436;25;44009;-77
2024/04/13 07:24:31;;;;;;;;;6.00;5.00;;;;;;;;5479571;25;45321;-77
2024/04/13 07:26:57;;;;;;;;;5.50;5.00;;;;;;;;5498961;25;44244;-77
2024/04/13 07:29:22;;;;;;;;;7.75;4.75;;;;;;;;5522823;25;43914;-77
2024/04/13 07:31:47;;;;;;;;;8.00;6.00;;;;;;;;5512194;25;43924;-79
2024/04/13 07:34:12;;;;;;;;;6.25;4.75;;;;;;;;5502381;25;44022;-79
2024/04/13 07:36:38;;;;;;;;;4.25;4.00;;;;;;;;5514846;25;43872;-78
2024/04/13 07:39:03;;;;;;;;;5.00;4.00;;;;;;;;5516157;25;44195;-77
2024/04/13 07:41:28;;;;;;;;;4.00;4.00;;;;;;;;5489814;25;44678;-78
2024/04/13 07:43:54;;;;;;;;;3.00;3.00;;;;;;;;5521839;25;44954;-78
2024/04/13 07:46:21;;;;;;;;;7.75;5.75;;;;;;;;5525344;25;44533;-77
2024/04/13 07:48:46;;;;;;;;;7.50;3.75;;;;;;;;5520388;25;44095;-79
2024/04/13 07:51:11;;;;;;;;;6.00;5.00;;;;;;;;5507590;25;44406;-78
2024/04/13 07:53:36;;;;;;;;;4.00;4.00;;;;;;;;5499577;25;44285;-78
2024/04/13 07:56:02;;;;;;;;;3.75;3.75;;;;;;;;5526979;25;44413;-77
2024/04/13 07:58:27;;;;;;;;;6.50;3.50;;;;;;;;5502024;25;44443;-79
2024/04/13 08:00:52;;;;;;;;;5.50;5.00;;;;;;;;5500224;25;44409;-78
2024/04/13 08:03:17;;;;;;;;;5.50;4.50;;;;;;;;5504395;25;44493;-78
2024/04/13 08:05:43;;;;;;;;;6.25;5.25;;;;;;;;5503049;25;44449;-78
2024/04/13 08:08:08;;;;;;;;;5.75;4.75;;;;;;;;5497750;25;44027;-78
2024/04/13 08:10:38;;;;;;;;;11.00;9.00;;;;;;;;5505016;25;44401;-77
2024/04/13 08:13:04;;;;;;;;;28.00;26.67;;;;;;;;5507821;25;45330;-77
2024/04/13 08:15:29;;;;;;;;;37.00;35.33;;;;;;;;5479271;25;43971;-76
2024/04/13 08:17:56;;;;;;;;;3.50;3.50;;;;;;;;5506005;25;44324;-77
2024/04/13 08:20:21;;;;;;;;;20.25;20.25;;;;;;;;5488241;25;44246;-76
2024/04/13 08:22:46;;;;;;;;;5.25;5.25;;;;;;;;5467439;25;44882;-78
2024/04/13 08:25:12;;;;;;;;;36.33;33.67;;;;;;;;5472285;25;44109;-78
2024/04/13 08:27:37;;;;;;;;;8.00;4.25;;;;;;;;5508444;25;44496;-79
2024/04/13 08:30:02;;;;;;;;;5.00;5.00;;;;;;;;5510176;25;43987;-78
2024/04/13 08:32:28;;;;;;;;;7.00;7.00;;;;;;;;5501835;25;45588;-78
2024/04/13 08:34:53;;;;;;;;;6.50;3.75;;;;;;;;5484799;25;44354;-77
2024/04/13 08:37:18;;;;;;;;;5.25;4.00;;;;;;;;5480864;25;44333;-77
2024/04/13 08:39:44;;;;;;;;;3.00;3.00;;;;;;;;5486540;25;45074;-77
2024/04/13 08:42:14;;;;;;;;;4.75;4.75;;;;;;;;5520787;25;44067;-74
2024/04/13 08:44:39;;;;;;;;;4.00;4.00;;;;;;;;5515367;25;43991;-78
2024/04/13 08:47:05;;;;;;;;;4.50;4.00;;;;;;;;5488211;25;44082;-72
2024/04/13 08:49:31;;;;;;;;;19.50;19.50;;;;;;;;5485895;25;44935;-73
2024/04/13 08:51:57;;;;;;;;;5.00;5.00;;;;;;;;5492290;25;44573;-73
2024/04/13 08:54:22;;;;;;;;;4.50;4.00;;;;;;;;5487337;25;44393;-74
2024/04/13 08:56:49;;;;;;;;;5.75;3.75;;;;;;;;5490495;25;44474;-74
2024/04/13 08:59:14;;;;;;;;;4.50;4.50;;;;;;;;5489375;25;44411;-74
2024/04/13 09:01:42;;;;;;;;;5.50;5.50;;;;;;;;5488288;25;44937;-73
2024/04/13 09:04:08;;;;;;;;;3.00;3.00;;;;;;;;5485662;25;44777;-75
2024/04/13 09:06:33;;;;;;;;;4.25;4.00;;;;;;;;5490948;25;44568;-74
2024/04/13 09:09:04;;;;;;;;;3.75;3.25;;;;;;;;5493819;25;44473;-77
2024/04/13 09:11:29;;;;;;;;;3.25;3.25;;;;;;;;5491172;25;45690;-74
2024/04/13 09:13:55;;;;;;;;;4.25;4.25;;;;;;;;5486427;25;44434;-75
2024/04/13 09:16:20;;;;;;;;;5.50;4.75;;;;;;;;5496254;25;44352;-75
2024/04/13 09:18:45;;;;;;;;;5.00;4.00;;;;;;;;5488844;25;44020;-73
2024/04/13 09:21:12;;;;;;;;;4.75;3.25;;;;;;;;5487373;25;45950;-74
2024/04/13 09:23:37;;;;;;;;;20.75;16.75;;;;;;;;5490951;25;43860;-75
2024/04/13 09:26:03;;;;;;;;;4.75;3.00;;;;;;;;5476408;25;44472;-73
2024/04/13 09:28:42;;;;;;;;;3.75;2.50;;;;;;;;5501034;25;45837;-77
2024/04/13 09:31:11;;;;;;;;;3.00;2.00;;;;;;;;5472659;25;45757;-79
2024/04/13 09:33:40;;;;;;;;;5.50;4.00;;;;;;;;5490691;25;44153;-80
2024/04/13 09:36:06;;;;;;;;;5.50;4.50;;;;;;;;5489742;25;44325;-77
2024/04/13 09:38:31;;;;;;;;;2.75;2.50;;;;;;;;5514976;25;44305;-78
2024/04/13 09:40:57;;;;;;;;;4.75;4.00;;;;;;;;5508550;25;44054;-76
2024/04/13 09:43:22;;;;;;;;;3.00;3.00;;;;;;;;5490899;25;43878;-76
2024/04/13 09:45:54;;;;;;;;;4.00;3.00;;;;;;;;5478106;25;44485;-78
2024/04/13 09:48:19;;;;;;;;;3.00;3.00;;;;;;;;5494364;25;44497;-77
2024/04/13 09:50:44;;;;;;;;;2.50;2.00;;;;;;;;5492182;25;46583;-79
2024/04/13 09:53:10;;;;;;;;;4.00;4.00;;;;;;;;5488951;25;43955;-77
2024/04/13 09:55:35;;;;;;;;;5.00;3.00;;;;;;;;5522291;25;44411;-75
2024/04/13 09:58:01;;;;;;;;;3.00;3.00;;;;;;;;5459419;25;44754;-77
2024/04/13 10:00:27;;;;;;;;;3.25;3.25;;;;;;;;5445291;25;46478;-74
2024/04/13 10:02:52;;;;;;;;;3.75;3.00;;;;;;;;5499688;25;44021;-73
2024/04/13 10:05:18;;;;;;;;;3.50;3.00;;;;;;;;5522640;25;44365;-74
2024/04/13 10:07:44;;;;;;;;;1.50;1.50;;;;;;;;5525366;25;44976;-78
2024/04/13 10:10:13;;;;;;;;;3.00;3.00;;;;;;;;5491719;25;45606;-78
2024/04/13 10:12:39;;;;;;;;;4.00;3.00;;;;;;;;5501662;25;44628;-77
2024/04/13 10:15:06;;;;;;;;;2.75;2.75;;;;;;;;5512991;25;44416;-78
2024/04/13 10:17:32;;;;;;;;;2.25;2.25;;;;;;;;5487294;25;44544;-78
2024/04/13 10:19:57;;;;;;;;;3.00;3.00;;;;;;;;5468242;25;44099;-77
2024/04/13 10:22:25;;;;;;;;;2.00;2.00;;;;;;;;5456765;25;43986;-79
2024/04/13 10:24:51;;;;;;;;;3.00;3.00;;;;;;;;5504892;25;44436;-73
2024/04/13 10:27:20;;;;;;;;;23.25;16.25;;;;;;;;5500565;25;44137;-73
2024/04/13 10:29:48;;;;;;;;;6.75;5.00;;;;;;;;5526363;25;45298;-75
2024/04/13 10:32:13;;;;;;;;;5.50;5.50;;;;;;;;5528156;25;43990;-75
2024/04/13 10:34:38;;;;;;;;;14.00;11.75;;;;;;;;5525604;25;44078;-74
2024/04/13 10:37:04;;;;;;;;;6.50;6.50;;;;;;;;5500998;25;44477;-77
2024/04/13 10:39:30;;;;;;;;;10.50;6.00;;;;;;;;5525381;25;44503;-78
2024/04/13 10:41:55;;;;;;;;;5.00;5.00;;;;;;;;5524903;25;44300;-77
2024/04/13 10:44:25;;;;;;;;;3.50;3.50;;;;;;;;5468136;25;44257;-77
2024/04/13 10:46:50;;;;;;;;;2.75;2.25;;;;;;;;5512540;25;44450;-78
2024/04/13 10:49:17;;;;;;;;;3.25;2.00;;;;;;;;5504945;25;46703;-78
2024/04/13 10:51:43;;;;;;;;;3.00;3.00;;;;;;;;5486597;25;44464;-78
2024/04/13 10:54:12;;;;;;;;;4.25;2.25;;;;;;;;5483898;25;44147;-78
2024/04/13 10:56:38;;;;;;;;;3.00;2.00;;;;;;;;5496277;25;44919;-78
2024/04/13 10:59:07;;;;;;;;;3.00;3.00;;;;;;;;5472912;25;44244;-79
2024/04/13 11:01:32;;;;;;;;;2.00;2.00;;;;;;;;5472739;25;43929;-78
2024/04/13 11:04:01;;;;;;;;;2.00;2.00;;;;;;;;5508387;25;44473;-77
2024/04/13 11:06:26;;;;;;;;;5.00;2.75;;;;;;;;5490187;25;44033;-77
2024/04/13 11:08:51;;;;;;;;;1.50;1.50;;;;;;;;5505952;25;44998;-79
2024/04/13 11:11:17;;;;;;;;;2.00;2.00;;;;;;;;5474295;25;44135;-77
2024/04/13 11:13:43;;;;;;;;;1.00;1.00;;;;;;;;5476080;25;44315;-77
2024/04/13 11:16:08;;;;;;;;;2.00;1.00;;;;;;;;5509541;25;44304;-79
2024/04/13 11:18:34;;;;;;;;;1.00;1.00;;;;;;;;5477510;25;45671;-79
2024/04/13 11:21:04;;;;;;;;;2.25;2.25;;;;;;;;5478102;25;44418;-77
2024/04/13 11:23:30;;;;;;;;;1.00;1.00;;;;;;;;5455675;25;44345;-78
2024/04/13 11:25:55;;;;;;;;;1.00;1.00;;;;;;;;5459209;25;43944;-77
2024/04/13 11:28:21;;;;;;;;;1.00;1.00;;;;;;;;5496967;25;44488;-76
2024/04/13 11:30:46;;;;;;;;;1.00;1.00;;;;;;;;5526324;25;44429;-77
2024/04/13 11:33:14;;;;;;;;;1.50;1.00;;;;;;;;5524486;25;44340;-76
2024/04/13 11:35:39;;;;;;;;;1.25;1.00;;;;;;;;5499134;25;44248;-79
2024/04/13 11:38:05;;;;;;;;;2.00;2.00;;;;;;;;5464168;25;44412;-77
2024/04/13 11:40:31;;;;;;;;;3.00;2.00;;;;;;;;5456169;25;44441;-79
2024/04/13 11:42:56;;;;;;;;;3.00;2.00;;;;;;;;5494010;25;44579;-77
2024/04/13 11:45:23;;;;;;;;;1.25;1.25;;;;;;;;5494401;25;44620;-77
2024/04/13 11:47:49;;;;;;;;;1.50;1.50;;;;;;;;5499883;25;45450;-77
2024/04/13 11:50:15;;;;;;;;;2.50;2.50;;;;;;;;5499226;25;44154;-77
2024/04/13 11:52:41;;;;;;;;;1.50;0.50;;;;;;;;5499090;25;43940;-76
2024/04/13 11:55:06;;;;;;;;;1.00;1.00;;;;;;;;5493181;25;44021;-77
2024/04/13 11:57:32;;;;;;;;;1.00;1.00;;;;;;;;5492513;25;45849;-78
2024/04/13 11:59:57;;;;;;;;;3.00;2.00;;;;;;;;5476413;25;43940;-78
2024/04/13 12:02:22;;;;;;;;;3.00;2.00;;;;;;;;5487523;25;44399;-77
2024/04/13 12:04:47;;;;;;;;;1.50;1.50;;;;;;;;5485846;25;44378;-78
2024/04/13 12:07:14;;;;;;;;;1.00;1.00;;;;;;;;5511833;25;45354;-79
2024/04/13 12:09:40;;;;;;;;;1.25;1.25;;;;;;;;5521583;25;44473;-77
2024/04/13 12:12:11;;;;;;;;;1.00;1.00;;;;;;;;5499268;25;44426;-76
2024/04/13 12:14:37;;;;;;;;;1.00;1.00;;;;;;;;5515382;25;44377;-77
2024/04/13 12:17:02;;;;;;;;;0.00;0.00;;;;;;;;5488065;25;44868;-77
2024/04/13 12:19:27;;;;;;;;;1.25;0.75;;;;;;;;5488389;25;44513;-77
2024/04/13 12:21:52;;;;;;;;;2.75;0.25;;;;;;;;5490288;25;44365;-77
2024/04/13 12:24:17;;;;;;;;;2.75;2.75;;;;;;;;5511164;25;43950;-77
2024/04/13 12:26:43;;;;;;;;;2.75;1.50;;;;;;;;5487943;25;45292;-77
2024/04/13 12:29:08;;;;;;;;;2.25;1.50;;;;;;;;5483809;25;43948;-77
2024/04/13 12:31:33;;;;;;;;;2.00;1.00;;;;;;;;5487029;25;44318;-78
2024/04/13 12:33:59;;;;;;;;;1.00;1.00;;;;;;;;5487143;25;44819;-79
2024/04/13 12:36:24;;;;;;;;;2.50;1.50;;;;;;;;5487096;25;47033;-76
2024/04/13 12:38:50;;;;;;;;;2.00;0.00;;;;;;;;5519045;25;43884;-78
2024/04/13 12:41:15;;;;;;;;;1.00;1.00;;;;;;;;5497644;25;43937;-77
2024/04/13 12:43:40;;;;;;;;;1.00;1.00;;;;;;;;5482769;25;44741;-79
2024/04/13 12:46:06;;;;;;;;;0.50;0.50;;;;;;;;5509772;25;44205;-79
2024/04/13 12:48:31;;;;;;;;;1.00;1.00;;;;;;;;5483003;25;44389;-77
2024/04/13 12:50:56;;;;;;;;;1.25;1.00;;;;;;;;5475150;25;44435;-77
2024/04/13 12:53:21;;;;;;;;;1.25;1.25;;;;;;;;5471848;25;44586;-77
2024/04/13 12:55:49;;;;;;;;;3.00;3.00;;;;;;;;5485682;25;44607;-77
2024/04/13 12:58:14;;;;;;;;;0.00;0.00;;;;;;;;5489399;25;44590;-76
2024/04/13 13:00:39;;;;;;;;;94.50;86.50;;;;;;;;5485442;25;44391;-76
2024/04/13 13:03:05;;;;;;;;;1.00;0.00;;;;;;;;5494099;25;44798;-77
2024/04/13 13:05:30;;;;;;;;;19.75;19.75;;;;;;;;5481645;25;44030;-78
2024/04/13 13:07:55;;;;;;;;;62.00;52.25;;;;;;;;5513910;25;43800;-76
2024/04/13 13:10:20;;;;;;;;;0.50;0.50;;;;;;;;5461523;25;43855;-78
2024/04/13 13:12:45;;;;;;;;;29.33;29.00;;;;;;;;5485859;25;43966;-79
2024/04/13 13:15:11;;;;;;;;;0.00;0.00;;;;;;;;5496587;25;44921;-78
2024/04/13 13:17:36;;;;;;;;;0.00;0.00;;;;;;;;5472932;25;44094;-79
2024/04/13 13:20:02;;;;;;;;;0.00;0.00;;;;;;;;5468588;25;43981;-78
2024/04/13 13:22:28;;;;;;;;;2.25;1.00;;;;;;;;5481093;25;44442;-73
2024/04/13 13:24:53;;;;;;;;;19.67;19.67;;;;;;;;5490567;25;45829;-72
2024/04/13 13:27:19;;;;;;;;;83.67;69.67;;;;;;;;5478581;25;43932;-73
2024/04/13 13:29:44;;;;;;;;;0.00;0.00;;;;;;;;5510994;25;44422;-73
2024/04/13 13:32:09;;;;;;;;;19.00;16.00;;;;;;;;5505075;25;45692;-72
2024/04/13 13:34:34;;;;;;;;;32.00;32.00;;;;;;;;5495598;25;45202;-73
2024/04/13 13:37:00;;;;;;;;;0.00;0.00;;;;;;;;5457598;25;44509;-74
2024/04/13 13:39:25;;;;;;;;;2.25;2.25;;;;;;;;5472329;25;44510;-72
2024/04/13 13:41:51;;;;;;;;;1.25;0.00;;;;;;;;5477404;25;45128;-73
2024/04/13 13:44:16;;;;;;;;;2.00;0.00;;;;;;;;5498918;25;46523;-71
2024/04/13 13:46:41;;;;;;;;;1.00;0.00;;;;;;;;5499550;25;43965;-73
2024/04/13 13:49:06;;;;;;;;;0.00;0.00;;;;;;;;5502044;25;43999;-74
2024/04/13 13:51:32;;;;;;;;;0.00;0.00;;;;;;;;5512592;25;44482;-73
2024/04/13 13:53:57;;;;;;;;;0.25;0.25;;;;;;;;5510571;25;45909;-74
2024/04/13 13:56:22;;;;;;;;;0.00;0.00;;;;;;;;5513894;25;44028;-75
2024/04/13 13:58:48;;;;;;;;;0.50;0.50;;;;;;;;5505839;25;44548;-74
2024/04/13 14:01:13;;;;;;;;;0.00;0.00;;;;;;;;5469048;25;45615;-73
2024/04/13 14:03:38;;;;;;;;;1.00;0.00;;;;;;;;5471059;25;45580;-73
2024/04/13 14:06:04;;;;;;;;;0.75;0.00;;;;;;;;5511897;25;44039;-73
2024/04/13 14:08:30;;;;;;;;;0.00;0.00;;;;;;;;5508824;25;44497;-74
2024/04/13 14:10:55;;;;;;;;;0.00;0.00;;;;;;;;5464894;25;44479;-76
2024/04/13 14:13:23;;;;;;;;;0.00;0.00;;;;;;;;5489891;25;44730;-73
2024/04/13 14:15:49;;;;;;;;;0.00;0.00;;;;;;;;5496987;25;43932;-73
2024/04/13 14:18:15;;;;;;;;;1.25;1.00;;;;;;;;5495244;25;43971;-74
2024/04/13 14:20:40;;;;;;;;;1.25;0.25;;;;;;;;5500057;25;44635;-74
2024/04/13 14:23:05;;;;;;;;;2.00;0.00;;;;;;;;5493620;25;45873;-72
2024/04/13 14:25:30;;;;;;;;;0.00;0.00;;;;;;;;5493662;25;43972;-74